sensor_id;sensor_type;location;lat;lon;timestamp;P1;durP1;ratioP1;P2;durP2;ratioP2
10244;SDS011;5167;52.164;10.530;2023-03-09T00:02:12;13.77;;;7.50;;
10244;SDS011;5167;52.164;10.530;2023-03-09T00:04:38;13.30;;;7.83;;
10244;SDS011;5167;52.164;10.530;2023-03-09T00:07:04;14.30;;;8.10;;
10244;SDS011;5167;52.164;10.530;2023-03-09T00:09:29;14.27;;;8.10;;
10244;SDS011;5167;52.164;10.530;2023-03-09T00:11:55;14.33;;;8.10;;
10244;SDS011;5167;52.164;10.530;2023-03-09T00:14:20;14.33;;;7.73;;
10244;SDS011;5167;52.164;10.530;2023-03-09T00:16:47;13.47;;;8.00;;
10244;SDS011;5167;52.164;10.530;2023-03-09T00:19:13;13.70;;;7.60;;
10244;SDS011;5167;52.164;10.530;2023-03-09T00:21:45;13.63;;;7.83;;
10244;SDS011;5167;52.164;10.530;2023-03-09T00:24:17;13.57;;;8.13;;
10244;SDS011;5167;52.164;10.530;2023-03-09T00:26:48;17.87;;;8.60;;
10244;SDS011;5167;52.164;10.530;2023-03-09T00:29:15;14.47;;;8.13;;
10244;SDS011;5167;52.164;10.530;2023-03-09T00:31:41;13.37;;;8.10;;
10244;SDS011;5167;52.164;10.530;2023-03-09T00:34:07;14.57;;;8.33;;
10244;SDS011;5167;52.164;10.530;2023-03-09T00:36:33;15.37;;;8.57;;
10244;SDS011;5167;52.164;10.530;2023-03-09T00:38:59;14.97;;;7.70;;
10244;SDS011;5167;52.164;10.530;2023-03-09T00:41:25;14.73;;;7.80;;
10244;SDS011;5167;52.164;10.530;2023-03-09T00:43:52;14.47;;;8.10;;
10244;SDS011;5167;52.164;10.530;2023-03-09T00:46:18;16.40;;;9.10;;
10244;SDS011;5167;52.164;10.530;2023-03-09T00:48:44;15.63;;;8.23;;
10244;SDS011;5167;52.164;10.530;2023-03-09T00:51:10;18.63;;;8.53;;
10244;SDS011;5167;52.164;10.530;2023-03-09T00:53:36;14.67;;;8.23;;
10244;SDS011;5167;52.164;10.530;2023-03-09T00:56:02;15.10;;;7.37;;
10244;SDS011;5167;52.164;10.530;2023-03-09T00:58:30;17.43;;;8.70;;
10244;SDS011;5167;52.164;10.530;2023-03-09T01:00:56;13.43;;;7.43;;
10244;SDS011;5167;52.164;10.530;2023-03-09T01:03:21;15.17;;;8.43;;
10244;SDS011;5167;52.164;10.530;2023-03-09T01:05:47;15.77;;;7.83;;
10244;SDS011;5167;52.164;10.530;2023-03-09T01:08:13;15.17;;;7.87;;
10244;SDS011;5167;52.164;10.530;2023-03-09T01:10:39;18.80;;;8.40;;
10244;SDS011;5167;52.164;10.530;2023-03-09T01:13:05;16.60;;;7.87;;
10244;SDS011;5167;52.164;10.530;2023-03-09T01:15:31;13.23;;;7.53;;
10244;SDS011;5167;52.164;10.530;2023-03-09T01:17:57;11.63;;;6.47;;
10244;SDS011;5167;52.164;10.530;2023-03-09T01:20:22;16.00;;;7.63;;
10244;SDS011;5167;52.164;10.530;2023-03-09T01:22:48;11.83;;;7.07;;
10244;SDS011;5167;52.164;10.530;2023-03-09T01:25:13;13.13;;;7.23;;
10244;SDS011;5167;52.164;10.530;2023-03-09T01:27:39;13.10;;;7.07;;
10244;SDS011;5167;52.164;10.530;2023-03-09T01:30:05;12.90;;;6.97;;
10244;SDS011;5167;52.164;10.530;2023-03-09T01:32:31;13.00;;;6.67;;
10244;SDS011;5167;52.164;10.530;2023-03-09T01:34:57;13.40;;;6.97;;
10244;SDS011;5167;52.164;10.530;2023-03-09T01:37:23;14.87;;;7.00;;
10244;SDS011;5167;52.164;10.530;2023-03-09T01:39:48;11.63;;;6.57;;
10244;SDS011;5167;52.164;10.530;2023-03-09T01:42:14;11.00;;;6.23;;
10244;SDS011;5167;52.164;10.530;2023-03-09T01:44:39;14.13;;;7.07;;
10244;SDS011;5167;52.164;10.530;2023-03-09T01:47:05;10.93;;;6.87;;
10244;SDS011;5167;52.164;10.530;2023-03-09T01:49:35;11.97;;;6.57;;
10244;SDS011;5167;52.164;10.530;2023-03-09T01:52:15;13.37;;;6.60;;
10244;SDS011;5167;52.164;10.530;2023-03-09T01:54:55;14.00;;;6.67;;
10244;SDS011;5167;52.164;10.530;2023-03-09T01:59:55;10.90;;;6.53;;
10244;SDS011;5167;52.164;10.530;2023-03-09T02:02:24;14.50;;;6.87;;
10244;SDS011;5167;52.164;10.530;2023-03-09T02:04:53;13.80;;;7.23;;
10244;SDS011;5167;52.164;10.530;2023-03-09T02:07:23;15.47;;;7.73;;
10244;SDS011;5167;52.164;10.530;2023-03-09T02:09:53;13.23;;;7.37;;
10244;SDS011;5167;52.164;10.530;2023-03-09T02:12:23;16.43;;;8.43;;
10244;SDS011;5167;52.164;10.530;2023-03-09T02:14:49;19.10;;;8.40;;
10244;SDS011;5167;52.164;10.530;2023-03-09T02:17:16;16.07;;;8.00;;
10244;SDS011;5167;52.164;10.530;2023-03-09T02:22:32;18.43;;;8.80;;
10244;SDS011;5167;52.164;10.530;2023-03-09T02:27:34;16.03;;;8.17;;
10244;SDS011;5167;52.164;10.530;2023-03-09T02:29:59;17.67;;;8.00;;
10244;SDS011;5167;52.164;10.530;2023-03-09T02:32:25;17.90;;;8.87;;
10244;SDS011;5167;52.164;10.530;2023-03-09T02:34:54;17.50;;;7.90;;
10244;SDS011;5167;52.164;10.530;2023-03-09T02:37:24;16.03;;;8.47;;
10244;SDS011;5167;52.164;10.530;2023-03-09T02:39:50;14.43;;;7.37;;
10244;SDS011;5167;52.164;10.530;2023-03-09T02:42:17;16.90;;;7.83;;
10244;SDS011;5167;52.164;10.530;2023-03-09T02:44:43;14.93;;;7.73;;
10244;SDS011;5167;52.164;10.530;2023-03-09T02:47:10;15.30;;;7.33;;
10244;SDS011;5167;52.164;10.530;2023-03-09T02:49:43;16.17;;;8.37;;
10244;SDS011;5167;52.164;10.530;2023-03-09T02:52:08;14.73;;;7.60;;
10244;SDS011;5167;52.164;10.530;2023-03-09T02:54:34;17.80;;;8.93;;
10244;SDS011;5167;52.164;10.530;2023-03-09T02:56:59;15.70;;;7.40;;
10244;SDS011;5167;52.164;10.530;2023-03-09T02:59:25;14.30;;;7.50;;
10244;SDS011;5167;52.164;10.530;2023-03-09T03:01:50;13.03;;;6.97;;
10244;SDS011;5167;52.164;10.530;2023-03-09T03:04:16;15.07;;;7.67;;
10244;SDS011;5167;52.164;10.530;2023-03-09T03:06:41;12.20;;;7.00;;
10244;SDS011;5167;52.164;10.530;2023-03-09T03:09:07;13.17;;;7.43;;
10244;SDS011;5167;52.164;10.530;2023-03-09T03:11:32;12.43;;;6.90;;
10244;SDS011;5167;52.164;10.530;2023-03-09T03:13:58;12.90;;;6.63;;
10244;SDS011;5167;52.164;10.530;2023-03-09T03:16:24;12.57;;;7.27;;
10244;SDS011;5167;52.164;10.530;2023-03-09T03:18:50;15.17;;;7.33;;
10244;SDS011;5167;52.164;10.530;2023-03-09T03:21:16;11.93;;;6.27;;
10244;SDS011;5167;52.164;10.530;2023-03-09T03:23:42;13.47;;;6.93;;
10244;SDS011;5167;52.164;10.530;2023-03-09T03:26:08;12.23;;;5.93;;
10244;SDS011;5167;52.164;10.530;2023-03-09T03:28:35;13.20;;;7.70;;
10244;SDS011;5167;52.164;10.530;2023-03-09T03:31:01;13.13;;;7.60;;
10244;SDS011;5167;52.164;10.530;2023-03-09T03:33:26;11.67;;;6.83;;
10244;SDS011;5167;52.164;10.530;2023-03-09T03:35:52;13.77;;;7.23;;
10244;SDS011;5167;52.164;10.530;2023-03-09T03:38:17;13.40;;;7.07;;
10244;SDS011;5167;52.164;10.530;2023-03-09T03:40:43;12.00;;;7.67;;
10244;SDS011;5167;52.164;10.530;2023-03-09T03:43:08;12.33;;;7.40;;
10244;SDS011;5167;52.164;10.530;2023-03-09T03:45:34;12.67;;;7.83;;
10244;SDS011;5167;52.164;10.530;2023-03-09T03:47:59;13.33;;;7.70;;
10244;SDS011;5167;52.164;10.530;2023-03-09T03:50:25;11.90;;;7.00;;
10244;SDS011;5167;52.164;10.530;2023-03-09T03:52:50;11.67;;;7.00;;
10244;SDS011;5167;52.164;10.530;2023-03-09T03:55:16;10.80;;;6.37;;
10244;SDS011;5167;52.164;10.530;2023-03-09T03:57:41;10.83;;;7.03;;
10244;SDS011;5167;52.164;10.530;2023-03-09T04:00:07;15.53;;;8.07;;
10244;SDS011;5167;52.164;10.530;2023-03-09T04:02:36;13.43;;;7.10;;
10244;SDS011;5167;52.164;10.530;2023-03-09T04:05:02;12.53;;;7.00;;
10244;SDS011;5167;52.164;10.530;2023-03-09T04:07:28;14.20;;;7.70;;
10244;SDS011;5167;52.164;10.530;2023-03-09T04:09:54;12.77;;;7.33;;
10244;SDS011;5167;52.164;10.530;2023-03-09T04:12:19;12.23;;;7.67;;
10244;SDS011;5167;52.164;10.530;2023-03-09T04:14:45;13.03;;;7.80;;
10244;SDS011;5167;52.164;10.530;2023-03-09T04:17:10;11.60;;;7.83;;
10244;SDS011;5167;52.164;10.530;2023-03-09T04:19:36;12.90;;;6.90;;
10244;SDS011;5167;52.164;10.530;2023-03-09T04:22:01;12.90;;;7.43;;
10244;SDS011;5167;52.164;10.530;2023-03-09T04:24:27;11.30;;;6.53;;
10244;SDS011;5167;52.164;10.530;2023-03-09T04:26:53;13.10;;;6.93;;
10244;SDS011;5167;52.164;10.530;2023-03-09T04:29:18;13.50;;;7.07;;
10244;SDS011;5167;52.164;10.530;2023-03-09T04:31:44;11.17;;;6.73;;
10244;SDS011;5167;52.164;10.530;2023-03-09T04:34:12;14.93;;;6.60;;
10244;SDS011;5167;52.164;10.530;2023-03-09T04:36:38;10.37;;;6.73;;
10244;SDS011;5167;52.164;10.530;2023-03-09T04:39:03;13.37;;;6.83;;
10244;SDS011;5167;52.164;10.530;2023-03-09T04:41:32;11.97;;;6.17;;
10244;SDS011;5167;52.164;10.530;2023-03-09T04:43:58;10.00;;;6.27;;
10244;SDS011;5167;52.164;10.530;2023-03-09T04:46:23;12.03;;;6.83;;
10244;SDS011;5167;52.164;10.530;2023-03-09T04:48:49;12.27;;;6.90;;
10244;SDS011;5167;52.164;10.530;2023-03-09T04:51:14;13.50;;;6.60;;
10244;SDS011;5167;52.164;10.530;2023-03-09T04:53:40;13.40;;;6.80;;
10244;SDS011;5167;52.164;10.530;2023-03-09T04:56:06;12.40;;;6.47;;
10244;SDS011;5167;52.164;10.530;2023-03-09T04:58:31;13.53;;;6.57;;
10244;SDS011;5167;52.164;10.530;2023-03-09T05:00:57;10.90;;;6.77;;
10244;SDS011;5167;52.164;10.530;2023-03-09T05:03:22;11.07;;;6.27;;
10244;SDS011;5167;52.164;10.530;2023-03-09T05:05:48;12.63;;;6.70;;
10244;SDS011;5167;52.164;10.530;2023-03-09T05:08:13;11.70;;;6.37;;
10244;SDS011;5167;52.164;10.530;2023-03-09T05:10:39;12.73;;;6.90;;
10244;SDS011;5167;52.164;10.530;2023-03-09T05:13:04;12.43;;;6.17;;
10244;SDS011;5167;52.164;10.530;2023-03-09T05:15:30;12.37;;;7.43;;
10244;SDS011;5167;52.164;10.530;2023-03-09T05:17:55;11.93;;;6.93;;
10244;SDS011;5167;52.164;10.530;2023-03-09T05:20:21;13.10;;;6.70;;
10244;SDS011;5167;52.164;10.530;2023-03-09T05:22:48;17.57;;;7.83;;
10244;SDS011;5167;52.164;10.530;2023-03-09T05:25:13;14.67;;;7.23;;
10244;SDS011;5167;52.164;10.530;2023-03-09T05:27:39;18.07;;;7.80;;
10244;SDS011;5167;52.164;10.530;2023-03-09T05:30:04;16.60;;;8.00;;
10244;SDS011;5167;52.164;10.530;2023-03-09T05:32:30;16.07;;;7.60;;
10244;SDS011;5167;52.164;10.530;2023-03-09T05:34:56;17.13;;;7.90;;
10244;SDS011;5167;52.164;10.530;2023-03-09T05:37:23;18.33;;;8.63;;
10244;SDS011;5167;52.164;10.530;2023-03-09T05:39:48;18.23;;;9.30;;
10244;SDS011;5167;52.164;10.530;2023-03-09T05:42:15;18.70;;;8.47;;
10244;SDS011;5167;52.164;10.530;2023-03-09T05:44:41;18.33;;;8.60;;
10244;SDS011;5167;52.164;10.530;2023-03-09T05:47:07;19.10;;;8.93;;
10244;SDS011;5167;52.164;10.530;2023-03-09T05:49:32;25.60;;;11.93;;
10244;SDS011;5167;52.164;10.530;2023-03-09T05:51:58;20.57;;;9.87;;
10244;SDS011;5167;52.164;10.530;2023-03-09T05:54:24;18.33;;;8.60;;
10244;SDS011;5167;52.164;10.530;2023-03-09T05:56:53;18.63;;;9.30;;
10244;SDS011;5167;52.164;10.530;2023-03-09T05:59:19;18.53;;;9.70;;
10244;SDS011;5167;52.164;10.530;2023-03-09T06:01:45;24.17;;;9.60;;
10244;SDS011;5167;52.164;10.530;2023-03-09T06:04:12;22.67;;;10.33;;
10244;SDS011;5167;52.164;10.530;2023-03-09T06:06:37;24.80;;;10.50;;
10244;SDS011;5167;52.164;10.530;2023-03-09T06:09:03;21.13;;;10.07;;
10244;SDS011;5167;52.164;10.530;2023-03-09T06:11:28;22.33;;;10.77;;
10244;SDS011;5167;52.164;10.530;2023-03-09T06:13:54;17.23;;;9.60;;
10244;SDS011;5167;52.164;10.530;2023-03-09T06:16:20;23.20;;;10.60;;
10244;SDS011;5167;52.164;10.530;2023-03-09T06:18:45;26.97;;;10.60;;
10244;SDS011;5167;52.164;10.530;2023-03-09T06:21:11;21.90;;;10.80;;
10244;SDS011;5167;52.164;10.530;2023-03-09T06:23:37;22.53;;;10.90;;
10244;SDS011;5167;52.164;10.530;2023-03-09T06:26:04;22.53;;;10.67;;
10244;SDS011;5167;52.164;10.530;2023-03-09T06:28:32;23.13;;;11.40;;
10244;SDS011;5167;52.164;10.530;2023-03-09T06:30:57;22.57;;;10.73;;
10244;SDS011;5167;52.164;10.530;2023-03-09T06:33:23;24.90;;;11.93;;
10244;SDS011;5167;52.164;10.530;2023-03-09T06:35:48;29.37;;;13.23;;
10244;SDS011;5167;52.164;10.530;2023-03-09T06:38:14;26.20;;;11.63;;
10244;SDS011;5167;52.164;10.530;2023-03-09T06:40:40;30.47;;;12.40;;
10244;SDS011;5167;52.164;10.530;2023-03-09T06:43:05;22.53;;;11.10;;
10244;SDS011;5167;52.164;10.530;2023-03-09T06:45:31;25.87;;;11.70;;
10244;SDS011;5167;52.164;10.530;2023-03-09T06:47:57;26.70;;;11.57;;
10244;SDS011;5167;52.164;10.530;2023-03-09T06:50:23;24.10;;;12.03;;
10244;SDS011;5167;52.164;10.530;2023-03-09T06:52:49;25.13;;;10.77;;
10244;SDS011;5167;52.164;10.530;2023-03-09T06:55:15;24.93;;;11.40;;
10244;SDS011;5167;52.164;10.530;2023-03-09T06:57:41;23.23;;;11.43;;
10244;SDS011;5167;52.164;10.530;2023-03-09T07:00:07;27.17;;;11.70;;
10244;SDS011;5167;52.164;10.530;2023-03-09T07:02:34;24.40;;;12.30;;
10244;SDS011;5167;52.164;10.530;2023-03-09T07:04:59;23.30;;;11.67;;
10244;SDS011;5167;52.164;10.530;2023-03-09T07:07:25;21.97;;;11.03;;
10244;SDS011;5167;52.164;10.530;2023-03-09T07:09:50;24.87;;;12.13;;
10244;SDS011;5167;52.164;10.530;2023-03-09T07:12:16;23.60;;;10.03;;
10244;SDS011;5167;52.164;10.530;2023-03-09T07:14:41;25.03;;;12.50;;
10244;SDS011;5167;52.164;10.530;2023-03-09T07:17:09;24.37;;;11.93;;
10244;SDS011;5167;52.164;10.530;2023-03-09T07:19:37;25.67;;;11.70;;
10244;SDS011;5167;52.164;10.530;2023-03-09T07:22:02;26.73;;;12.40;;
10244;SDS011;5167;52.164;10.530;2023-03-09T07:24:28;26.27;;;11.80;;
10244;SDS011;5167;52.164;10.530;2023-03-09T07:26:53;25.07;;;12.40;;
10244;SDS011;5167;52.164;10.530;2023-03-09T07:29:19;25.30;;;12.20;;
10244;SDS011;5167;52.164;10.530;2023-03-09T07:31:45;26.80;;;13.17;;
10244;SDS011;5167;52.164;10.530;2023-03-09T07:34:10;25.93;;;12.53;;
10244;SDS011;5167;52.164;10.530;2023-03-09T07:36:36;24.87;;;10.43;;
10244;SDS011;5167;52.164;10.530;2023-03-09T07:39:02;21.33;;;10.67;;
10244;SDS011;5167;52.164;10.530;2023-03-09T07:41:27;27.67;;;10.87;;
10244;SDS011;5167;52.164;10.530;2023-03-09T07:43:53;22.63;;;10.40;;
10244;SDS011;5167;52.164;10.530;2023-03-09T07:46:18;20.73;;;11.00;;
10244;SDS011;5167;52.164;10.530;2023-03-09T07:48:44;21.00;;;10.37;;
10244;SDS011;5167;52.164;10.530;2023-03-09T07:51:10;19.60;;;9.73;;
10244;SDS011;5167;52.164;10.530;2023-03-09T07:53:38;20.53;;;9.73;;
10244;SDS011;5167;52.164;10.530;2023-03-09T07:56:04;20.80;;;9.90;;
10244;SDS011;5167;52.164;10.530;2023-03-09T07:58:31;28.40;;;10.40;;
10244;SDS011;5167;52.164;10.530;2023-03-09T08:00:58;20.70;;;9.73;;
10244;SDS011;5167;52.164;10.530;2023-03-09T08:03:23;21.93;;;9.37;;
10244;SDS011;5167;52.164;10.530;2023-03-09T08:05:49;15.57;;;8.27;;
10244;SDS011;5167;52.164;10.530;2023-03-09T08:08:20;16.73;;;8.20;;
10244;SDS011;5167;52.164;10.530;2023-03-09T08:10:49;18.23;;;8.80;;
10244;SDS011;5167;52.164;10.530;2023-03-09T08:13:16;17.63;;;9.20;;
10244;SDS011;5167;52.164;10.530;2023-03-09T08:15:42;18.40;;;8.43;;
10244;SDS011;5167;52.164;10.530;2023-03-09T08:18:07;18.87;;;8.93;;
10244;SDS011;5167;52.164;10.530;2023-03-09T08:20:33;16.13;;;8.80;;
10244;SDS011;5167;52.164;10.530;2023-03-09T08:22:59;15.57;;;8.27;;
10244;SDS011;5167;52.164;10.530;2023-03-09T08:25:26;16.17;;;8.67;;
10244;SDS011;5167;52.164;10.530;2023-03-09T08:27:52;15.60;;;7.83;;
10244;SDS011;5167;52.164;10.530;2023-03-09T08:30:18;18.90;;;10.33;;
10244;SDS011;5167;52.164;10.530;2023-03-09T08:32:46;18.80;;;8.80;;
10244;SDS011;5167;52.164;10.530;2023-03-09T08:35:16;16.73;;;8.30;;
10244;SDS011;5167;52.164;10.530;2023-03-09T08:37:46;17.33;;;8.53;;
10244;SDS011;5167;52.164;10.530;2023-03-09T08:40:13;16.17;;;8.60;;
10244;SDS011;5167;52.164;10.530;2023-03-09T08:42:39;15.97;;;8.33;;
10244;SDS011;5167;52.164;10.530;2023-03-09T08:45:05;15.53;;;8.40;;
10244;SDS011;5167;52.164;10.530;2023-03-09T08:47:32;16.57;;;8.67;;
10244;SDS011;5167;52.164;10.530;2023-03-09T08:49:58;17.77;;;9.37;;
10244;SDS011;5167;52.164;10.530;2023-03-09T08:52:23;15.37;;;8.37;;
10244;SDS011;5167;52.164;10.530;2023-03-09T08:54:49;17.03;;;9.07;;
10244;SDS011;5167;52.164;10.530;2023-03-09T08:57:15;14.27;;;7.80;;
10244;SDS011;5167;52.164;10.530;2023-03-09T08:59:41;12.57;;;7.70;;
10244;SDS011;5167;52.164;10.530;2023-03-09T09:02:09;15.83;;;7.50;;
10244;SDS011;5167;52.164;10.530;2023-03-09T09:04:39;13.37;;;7.37;;
10244;SDS011;5167;52.164;10.530;2023-03-09T09:07:09;18.20;;;8.37;;
10244;SDS011;5167;52.164;10.530;2023-03-09T09:09:39;17.40;;;7.97;;
10244;SDS011;5167;52.164;10.530;2023-03-09T09:12:05;11.47;;;7.37;;
10244;SDS011;5167;52.164;10.530;2023-03-09T09:14:31;14.83;;;8.30;;
10244;SDS011;5167;52.164;10.530;2023-03-09T09:16:59;17.67;;;8.73;;
10244;SDS011;5167;52.164;10.530;2023-03-09T09:19:25;18.83;;;9.20;;
10244;SDS011;5167;52.164;10.530;2023-03-09T09:21:51;19.07;;;9.63;;
10244;SDS011;5167;52.164;10.530;2023-03-09T09:24:17;17.63;;;8.53;;
10244;SDS011;5167;52.164;10.530;2023-03-09T09:26:44;16.13;;;8.97;;
10244;SDS011;5167;52.164;10.530;2023-03-09T09:29:10;20.03;;;10.60;;
10244;SDS011;5167;52.164;10.530;2023-03-09T09:31:36;18.60;;;9.53;;
10244;SDS011;5167;52.164;10.530;2023-03-09T09:34:02;16.83;;;9.00;;
10244;SDS011;5167;52.164;10.530;2023-03-09T09:36:27;16.27;;;9.13;;
10244;SDS011;5167;52.164;10.530;2023-03-09T09:38:53;19.73;;;10.00;;
10244;SDS011;5167;52.164;10.530;2023-03-09T09:41:21;19.77;;;9.53;;
10244;SDS011;5167;52.164;10.530;2023-03-09T09:43:53;18.17;;;9.27;;
10244;SDS011;5167;52.164;10.530;2023-03-09T09:46:21;18.97;;;9.17;;
10244;SDS011;5167;52.164;10.530;2023-03-09T09:48:48;22.53;;;10.80;;
10244;SDS011;5167;52.164;10.530;2023-03-09T09:56:51;18.90;;;9.60;;
10244;SDS011;5167;52.164;10.530;2023-03-09T09:59:33;23.20;;;9.87;;
10244;SDS011;5167;52.164;10.530;2023-03-09T10:04:46;17.87;;;9.43;;
10244;SDS011;5167;52.164;10.530;2023-03-09T10:07:21;18.77;;;9.30;;
10244;SDS011;5167;52.164;10.530;2023-03-09T10:09:54;23.03;;;10.63;;
10244;SDS011;5167;52.164;10.530;2023-03-09T10:12:25;20.37;;;9.90;;
10244;SDS011;5167;52.164;10.530;2023-03-09T10:14:52;18.53;;;8.97;;
10244;SDS011;5167;52.164;10.530;2023-03-09T10:17:26;24.80;;;10.90;;
10244;SDS011;5167;52.164;10.530;2023-03-09T10:19:59;19.73;;;9.50;;
10244;SDS011;5167;52.164;10.530;2023-03-09T10:22:38;18.77;;;9.63;;
10244;SDS011;5167;52.164;10.530;2023-03-09T10:25:09;20.27;;;9.10;;
10244;SDS011;5167;52.164;10.530;2023-03-09T10:30:32;18.27;;;9.63;;
10244;SDS011;5167;52.164;10.530;2023-03-09T10:36:06;20.53;;;9.43;;
10244;SDS011;5167;52.164;10.530;2023-03-09T10:38:33;18.33;;;8.67;;
10244;SDS011;5167;52.164;10.530;2023-03-09T10:41:01;18.83;;;9.30;;
10244;SDS011;5167;52.164;10.530;2023-03-09T10:46:07;21.37;;;9.87;;
10244;SDS011;5167;52.164;10.530;2023-03-09T10:48:42;21.00;;;10.17;;
10244;SDS011;5167;52.164;10.530;2023-03-09T10:51:20;19.87;;;10.07;;
10244;SDS011;5167;52.164;10.530;2023-03-09T10:53:50;20.30;;;10.83;;
10244;SDS011;5167;52.164;10.530;2023-03-09T11:01:31;16.50;;;8.93;;
10244;SDS011;5167;52.164;10.530;2023-03-09T11:04:00;22.80;;;11.43;;
10244;SDS011;5167;52.164;10.530;2023-03-09T11:06:35;17.77;;;9.83;;
10244;SDS011;5167;52.164;10.530;2023-03-09T11:09:12;18.53;;;9.57;;
10244;SDS011;5167;52.164;10.530;2023-03-09T11:11:40;17.80;;;8.97;;
10244;SDS011;5167;52.164;10.530;2023-03-09T11:14:26;20.03;;;9.57;;
10244;SDS011;5167;52.164;10.530;2023-03-09T11:16:55;22.90;;;11.13;;
10244;SDS011;5167;52.164;10.530;2023-03-09T11:19:22;20.07;;;9.90;;
10244;SDS011;5167;52.164;10.530;2023-03-09T11:24:30;22.43;;;10.20;;
10244;SDS011;5167;52.164;10.530;2023-03-09T11:27:04;19.87;;;10.30;;
10244;SDS011;5167;52.164;10.530;2023-03-09T11:30:06;20.93;;;10.33;;
10244;SDS011;5167;52.164;10.530;2023-03-09T11:32:39;23.90;;;11.43;;
10244;SDS011;5167;52.164;10.530;2023-03-09T11:35:05;21.87;;;10.77;;
10244;SDS011;5167;52.164;10.530;2023-03-09T11:37:39;20.57;;;9.73;;
10244;SDS011;5167;52.164;10.530;2023-03-09T11:40:20;20.57;;;10.17;;
10244;SDS011;5167;52.164;10.530;2023-03-09T11:42:58;22.13;;;11.03;;
10244;SDS011;5167;52.164;10.530;2023-03-09T11:45:29;22.77;;;10.37;;
10244;SDS011;5167;52.164;10.530;2023-03-09T11:47:58;21.07;;;11.20;;
10244;SDS011;5167;52.164;10.530;2023-03-09T11:50:44;24.37;;;11.67;;
10244;SDS011;5167;52.164;10.530;2023-03-09T11:53:33;20.83;;;9.33;;
10244;SDS011;5167;52.164;10.530;2023-03-09T11:58:41;22.03;;;10.80;;
10244;SDS011;5167;52.164;10.530;2023-03-09T12:01:12;20.57;;;10.30;;
10244;SDS011;5167;52.164;10.530;2023-03-09T12:03:49;23.30;;;10.43;;
10244;SDS011;5167;52.164;10.530;2023-03-09T12:06:27;17.57;;;9.50;;
10244;SDS011;5167;52.164;10.530;2023-03-09T12:08:57;19.63;;;9.50;;
10244;SDS011;5167;52.164;10.530;2023-03-09T12:11:30;19.53;;;10.27;;
10244;SDS011;5167;52.164;10.530;2023-03-09T12:14:03;26.30;;;10.63;;
10244;SDS011;5167;52.164;10.530;2023-03-09T12:16:51;21.00;;;9.90;;
10244;SDS011;5167;52.164;10.530;2023-03-09T12:19:21;19.10;;;9.97;;
10244;SDS011;5167;52.164;10.530;2023-03-09T12:21:59;21.03;;;10.03;;
10244;SDS011;5167;52.164;10.530;2023-03-09T12:24:33;24.03;;;10.13;;
10244;SDS011;5167;52.164;10.530;2023-03-09T12:29:46;21.93;;;9.83;;
10244;SDS011;5167;52.164;10.530;2023-03-09T12:32:39;21.37;;;9.20;;
10244;SDS011;5167;52.164;10.530;2023-03-09T12:35:11;23.47;;;10.60;;
10244;SDS011;5167;52.164;10.530;2023-03-09T12:40:43;20.00;;;9.87;;
10244;SDS011;5167;52.164;10.530;2023-03-09T12:45:41;18.70;;;9.27;;
10244;SDS011;5167;52.164;10.530;2023-03-09T12:48:22;20.20;;;9.90;;
10244;SDS011;5167;52.164;10.530;2023-03-09T12:50:54;19.43;;;9.57;;
10244;SDS011;5167;52.164;10.530;2023-03-09T12:53:34;18.80;;;9.47;;
10244;SDS011;5167;52.164;10.530;2023-03-09T12:56:43;17.17;;;8.00;;
10244;SDS011;5167;52.164;10.530;2023-03-09T12:59:09;19.67;;;8.93;;
10244;SDS011;5167;52.164;10.530;2023-03-09T13:01:35;21.10;;;9.40;;
10244;SDS011;5167;52.164;10.530;2023-03-09T13:06:52;19.87;;;10.00;;
10244;SDS011;5167;52.164;10.530;2023-03-09T13:09:38;22.13;;;10.60;;
10244;SDS011;5167;52.164;10.530;2023-03-09T13:12:14;23.13;;;10.77;;
10244;SDS011;5167;52.164;10.530;2023-03-09T13:19:55;28.47;;;10.97;;
10244;SDS011;5167;52.164;10.530;2023-03-09T13:22:37;25.20;;;11.97;;
10244;SDS011;5167;52.164;10.530;2023-03-09T13:25:16;24.90;;;11.07;;
10244;SDS011;5167;52.164;10.530;2023-03-09T13:28:26;26.53;;;11.83;;
10244;SDS011;5167;52.164;10.530;2023-03-09T13:31:25;26.17;;;11.33;;
10244;SDS011;5167;52.164;10.530;2023-03-09T13:33:51;20.70;;;9.50;;
10244;SDS011;5167;52.164;10.530;2023-03-09T13:36:19;24.60;;;10.20;;
10244;SDS011;5167;52.164;10.530;2023-03-09T13:38:49;23.83;;;10.93;;
10244;SDS011;5167;52.164;10.530;2023-03-09T13:41:28;24.57;;;10.93;;
10244;SDS011;5167;52.164;10.530;2023-03-09T13:43:54;22.80;;;10.70;;
10244;SDS011;5167;52.164;10.530;2023-03-09T13:46:36;22.07;;;10.60;;
10244;SDS011;5167;52.164;10.530;2023-03-09T13:49:05;22.23;;;10.23;;
10244;SDS011;5167;52.164;10.530;2023-03-09T13:51:45;20.30;;;9.83;;
10244;SDS011;5167;52.164;10.530;2023-03-09T13:54:22;25.90;;;11.40;;
10244;SDS011;5167;52.164;10.530;2023-03-09T13:59:52;23.90;;;11.00;;
10244;SDS011;5167;52.164;10.530;2023-03-09T14:02:26;24.87;;;11.80;;
10244;SDS011;5167;52.164;10.530;2023-03-09T14:07:26;26.03;;;11.03;;
10244;SDS011;5167;52.164;10.530;2023-03-09T14:09:56;22.57;;;11.90;;
10244;SDS011;5167;52.164;10.530;2023-03-09T14:12:32;23.77;;;11.17;;
10244;SDS011;5167;52.164;10.530;2023-03-09T14:15:00;25.63;;;10.67;;
10244;SDS011;5167;52.164;10.530;2023-03-09T14:17:31;21.50;;;10.50;;
10244;SDS011;5167;52.164;10.530;2023-03-09T14:19:59;21.83;;;10.17;;
10244;SDS011;5167;52.164;10.530;2023-03-09T14:22:26;24.23;;;10.03;;
10244;SDS011;5167;52.164;10.530;2023-03-09T14:24:53;22.17;;;10.33;;
10244;SDS011;5167;52.164;10.530;2023-03-09T14:29:54;23.40;;;10.30;;
10244;SDS011;5167;52.164;10.530;2023-03-09T14:32:22;20.43;;;9.90;;
10244;SDS011;5167;52.164;10.530;2023-03-09T14:34:55;20.77;;;10.13;;
10244;SDS011;5167;52.164;10.530;2023-03-09T14:37:24;20.93;;;10.53;;
10244;SDS011;5167;52.164;10.530;2023-03-09T14:39:57;26.23;;;11.23;;
10244;SDS011;5167;52.164;10.530;2023-03-09T14:42:28;21.60;;;10.57;;
10244;SDS011;5167;52.164;10.530;2023-03-09T14:45:00;21.43;;;10.77;;
10244;SDS011;5167;52.164;10.530;2023-03-09T14:47:34;24.23;;;11.13;;
10244;SDS011;5167;52.164;10.530;2023-03-09T14:50:01;28.57;;;12.27;;
10244;SDS011;5167;52.164;10.530;2023-03-09T14:52:27;21.40;;;10.33;;
10244;SDS011;5167;52.164;10.530;2023-03-09T14:54:55;23.90;;;11.70;;
10244;SDS011;5167;52.164;10.530;2023-03-09T14:57:23;26.50;;;11.90;;
10244;SDS011;5167;52.164;10.530;2023-03-09T14:59:49;22.93;;;10.73;;
10244;SDS011;5167;52.164;10.530;2023-03-09T15:02:15;22.97;;;10.33;;
10244;SDS011;5167;52.164;10.530;2023-03-09T15:04:41;21.50;;;11.67;;
10244;SDS011;5167;52.164;10.530;2023-03-09T15:07:09;25.10;;;11.80;;
10244;SDS011;5167;52.164;10.530;2023-03-09T15:09:37;24.77;;;10.97;;
10244;SDS011;5167;52.164;10.530;2023-03-09T15:12:07;23.37;;;10.77;;
10244;SDS011;5167;52.164;10.530;2023-03-09T15:14:34;26.33;;;10.73;;
10244;SDS011;5167;52.164;10.530;2023-03-09T15:17:05;23.87;;;11.33;;
10244;SDS011;5167;52.164;10.530;2023-03-09T15:19:31;25.30;;;11.57;;
10244;SDS011;5167;52.164;10.530;2023-03-09T15:21:58;25.60;;;11.63;;
10244;SDS011;5167;52.164;10.530;2023-03-09T15:24:26;26.03;;;11.80;;
10244;SDS011;5167;52.164;10.530;2023-03-09T15:26:55;29.77;;;13.10;;
10244;SDS011;5167;52.164;10.530;2023-03-09T15:29:21;26.37;;;11.97;;
10244;SDS011;5167;52.164;10.530;2023-03-09T15:31:46;29.13;;;12.60;;
10244;SDS011;5167;52.164;10.530;2023-03-09T15:34:12;28.80;;;13.73;;
10244;SDS011;5167;52.164;10.530;2023-03-09T15:36:37;28.03;;;12.20;;
10244;SDS011;5167;52.164;10.530;2023-03-09T15:39:03;25.60;;;11.30;;